Time;durP1;ratioP1;P1;durP2;ratioP2;P2;SDS_P1;SDS_P2;PMS_P1;PMS_P2;Temp;Humidity;BMP_temperature;BMP_pressure;BME280_temperature;BME280_humidity;BME280_pressure;Samples;Min_cycle;Max_cycle;Signal;HPM_P1;HPM_P2
2022/07/30 00:01:56;;;;;;;0.90;0.90;;;;;;;;;;5008001;28;20200;-66
2022/07/30 00:04:29;;;;;;;1.73;1.10;;;;;;;;;;5003828;28;20297;-67
2022/07/30 00:07:04;;;;;;;1.20;1.10;;;;;;;;;;4993983;28;20218;-67
2022/07/30 00:09:36;;;;;;;1.20;1.00;;;;;;;;;;5010527;28;20200;-67
2022/07/30 00:12:12;;;;;;;0.90;0.90;;;;;;;;;;5008726;28;20568;-67
2022/07/30 00:14:41;;;;;;;1.50;1.30;;;;;;;;;;4985106;28;20219;-66
2022/07/30 00:17:14;;;;;;;1.20;1.10;;;;;;;;;;4994557;28;20206;-66
2022/07/30 00:19:53;;;;;;;0.93;0.93;;;;;;;;;;5012540;28;20195;-66
2022/07/30 00:22:23;;;;;;;1.13;1.07;;;;;;;;;;5008750;28;20197;-66
2022/07/30 00:24:51;;;;;;;0.80;0.80;;;;;;;;;;4994989;28;20223;-67
2022/07/30 00:27:19;;;;;;;1.20;1.10;;;;;;;;;;4990173;28;20232;-67
2022/07/30 00:29:49;;;;;;;1.00;1.00;;;;;;;;;;5009714;28;20830;-67
2022/07/30 00:32:20;;;;;;;1.00;1.00;;;;;;;;;;5011324;28;20195;-67
2022/07/30 00:34:50;;;;;;;1.23;1.13;;;;;;;;;;4989350;28;20229;-67
2022/07/30 00:37:25;;;;;;;1.20;1.10;;;;;;;;;;5006793;28;20195;-67
2022/07/30 00:39:56;;;;;;;1.33;1.13;;;;;;;;;;5006953;28;20239;-66
2022/07/30 00:42:36;;;;;;;1.57;1.33;;;;;;;;;;5013687;28;20211;-67
2022/07/30 00:45:09;;;;;;;1.20;1.10;;;;;;;;;;5011637;28;20204;-66
2022/07/30 00:47:46;;;;;;;1.23;1.13;;;;;;;;;;5009759;28;20206;-66
2022/07/30 00:50:17;;;;;;;1.00;1.00;;;;;;;;;;5012959;28;20283;-66
2022/07/30 00:52:52;;;;;;;1.10;1.00;;;;;;;;;;4992205;28;20628;-66
2022/07/30 00:55:41;;;;;;;1.03;1.00;;;;;;;;;;5012108;28;20694;-66
2022/07/30 00:58:15;;;;;;;0.90;0.90;;;;;;;;;;5003553;28;20234;-66
2022/07/30 01:00:45;;;;;;;1.27;1.00;;;;;;;;;;5013864;28;20238;-66
2022/07/30 01:03:18;;;;;;;1.10;1.10;;;;;;;;;;5024671;28;20242;-66
2022/07/30 01:05:48;;;;;;;1.10;1.00;;;;;;;;;;5015518;28;20241;-67
2022/07/30 01:08:18;;;;;;;0.90;0.90;;;;;;;;;;5013309;28;20200;-66
2022/07/30 01:10:51;;;;;;;1.30;1.10;;;;;;;;;;5017149;28;20192;-67
2022/07/30 01:13:24;;;;;;;1.00;1.00;;;;;;;;;;5015696;28;20206;-67
2022/07/30 01:15:54;;;;;;;1.10;1.00;;;;;;;;;;5017543;28;20671;-67
2022/07/30 01:21:33;;;;;;;1.00;1.00;;;;;;;;;;5010643;28;20199;-66
2022/07/30 01:24:28;;;;;;;2.70;1.10;;;;;;;;;;5017525;28;20206;-67
2022/07/30 01:27:07;;;;;;;1.00;0.90;;;;;;;;;;5008967;28;20350;-67
2022/07/30 01:29:38;;;;;;;1.30;1.20;;;;;;;;;;5004721;28;20195;-66
2022/07/30 01:32:10;;;;;;;0.90;0.90;;;;;;;;;;5026788;28;20286;-67
2022/07/30 01:34:43;;;;;;;1.40;1.30;;;;;;;;;;5024395;28;20226;-66
2022/07/30 01:37:16;;;;;;;1.00;0.90;;;;;;;;;;5020019;28;20274;-67
2022/07/30 01:40:05;;;;;;;1.23;1.13;;;;;;;;;;4999879;28;20243;-66
2022/07/30 01:42:38;;;;;;;1.33;1.23;;;;;;;;;;5019137;28;20270;-66
2022/07/30 01:45:15;;;;;;;1.10;1.00;;;;;;;;;;5013628;28;20199;-66
2022/07/30 01:47:55;;;;;;;1.20;1.10;;;;;;;;;;5010307;28;20321;-66
2022/07/30 01:50:28;;;;;;;1.53;1.20;;;;;;;;;;5014543;28;20218;-66
2022/07/30 01:52:59;;;;;;;1.33;1.23;;;;;;;;;;4988919;28;20573;-67
2022/07/30 01:55:37;;;;;;;1.00;0.90;;;;;;;;;;5012634;28;20676;-67
2022/07/30 01:58:10;;;;;;;1.10;1.00;;;;;;;;;;5009647;28;20222;-66
2022/07/30 02:00:42;;;;;;;1.30;1.20;;;;;;;;;;4978250;28;20250;-66
2022/07/30 02:03:11;;;;;;;1.00;1.00;;;;;;;;;;5012415;28;20223;-67
2022/07/30 02:05:44;;;;;;;1.20;1.10;;;;;;;;;;5017470;28;20203;-67
2022/07/30 02:08:22;;;;;;;1.93;1.30;;;;;;;;;;4994078;28;20206;-66
2022/07/30 02:11:08;;;;;;;1.40;1.30;;;;;;;;;;5018881;28;20218;-67
2022/07/30 02:13:47;;;;;;;1.00;1.00;;;;;;;;;;4983295;28;20208;-66
2022/07/30 02:16:28;;;;;;;1.23;1.07;;;;;;;;;;5011493;28;20219;-67
2022/07/30 02:19:09;;;;;;;1.00;1.00;;;;;;;;;;5011817;28;20200;-66
2022/07/30 02:21:56;;;;;;;1.30;1.20;;;;;;;;;;5010554;28;20197;-66
2022/07/30 02:24:28;;;;;;;1.00;1.00;;;;;;;;;;5015259;28;20210;-66
2022/07/30 02:27:06;;;;;;;0.80;0.80;;;;;;;;;;5008885;28;20199;-66
2022/07/30 02:29:40;;;;;;;1.23;1.13;;;;;;;;;;5027924;28;20230;-67
2022/07/30 02:32:13;;;;;;;1.10;1.00;;;;;;;;;;5009611;28;20203;-66
2022/07/30 02:34:44;;;;;;;1.07;1.00;;;;;;;;;;5011971;28;20223;-66
2022/07/30 02:37:13;;;;;;;1.20;1.10;;;;;;;;;;4966678;28;20211;-66
2022/07/30 02:39:51;;;;;;;1.10;1.00;;;;;;;;;;5000125;28;20234;-66
2022/07/30 02:42:25;;;;;;;1.10;1.00;;;;;;;;;;5017294;28;20215;-66
2022/07/30 02:44:57;;;;;;;1.40;1.30;;;;;;;;;;5009065;28;20200;-66
2022/07/30 02:47:26;;;;;;;1.30;1.20;;;;;;;;;;4998066;28;20620;-66
2022/07/30 02:50:06;;;;;;;1.40;1.30;;;;;;;;;;4991159;28;20637;-66
2022/07/30 02:52:52;;;;;;;1.10;1.10;;;;;;;;;;5002702;28;20827;-66
2022/07/30 02:55:25;;;;;;;1.00;1.00;;;;;;;;;;4986491;28;20679;-66
2022/07/30 02:57:59;;;;;;;1.50;1.40;;;;;;;;;;4991500;28;20203;-67
2022/07/30 03:00:31;;;;;;;1.03;1.00;;;;;;;;;;5003183;28;20230;-66
2022/07/30 03:03:02;;;;;;;1.40;1.30;;;;;;;;;;4995119;28;20261;-65
2022/07/30 03:05:40;;;;;;;1.10;1.00;;;;;;;;;;5019339;28;20254;-66
2022/07/30 03:08:14;;;;;;;1.20;1.10;;;;;;;;;;5013972;28;20257;-66
2022/07/30 03:10:48;;;;;;;1.30;1.20;;;;;;;;;;5016031;28;20203;-65
2022/07/30 03:13:21;;;;;;;1.07;1.00;;;;;;;;;;4994074;28;20364;-65
2022/07/30 03:15:59;;;;;;;1.40;1.17;;;;;;;;;;4990516;28;20246;-65
2022/07/30 03:18:35;;;;;;;1.40;1.30;;;;;;;;;;5008391;28;20198;-66
2022/07/30 03:21:11;;;;;;;1.63;1.23;;;;;;;;;;5004142;28;20191;-65
2022/07/30 03:23:41;;;;;;;1.43;1.33;;;;;;;;;;5009653;28;20196;-65
2022/07/30 03:26:14;;;;;;;1.20;1.10;;;;;;;;;;5010242;28;20195;-66
2022/07/30 03:28:54;;;;;;;1.00;1.00;;;;;;;;;;5013985;28;20209;-65
2022/07/30 03:31:28;;;;;;;1.30;1.20;;;;;;;;;;4985350;28;20211;-65
2022/07/30 03:34:08;;;;;;;1.23;1.13;;;;;;;;;;5000668;28;20780;-66
2022/07/30 03:36:42;;;;;;;1.20;1.10;;;;;;;;;;5010823;28;20191;-68
2022/07/30 03:39:14;;;;;;;0.93;0.93;;;;;;;;;;5012308;28;20231;-65
2022/07/30 03:41:46;;;;;;;1.10;1.00;;;;;;;;;;5011929;28;20191;-65
2022/07/30 03:44:21;;;;;;;1.10;1.00;;;;;;;;;;5012407;28;20196;-65
2022/07/30 03:47:01;;;;;;;1.40;1.30;;;;;;;;;;5004977;28;20644;-65
2022/07/30 03:49:34;;;;;;;1.30;1.20;;;;;;;;;;4989292;28;20183;-65
2022/07/30 03:52:09;;;;;;;1.20;1.10;;;;;;;;;;5003035;28;20219;-65
2022/07/30 03:54:43;;;;;;;1.70;1.17;;;;;;;;;;5006435;28;20590;-65
2022/07/30 03:57:17;;;;;;;1.57;1.10;;;;;;;;;;4993304;28;20216;-67
2022/07/30 03:59:50;;;;;;;1.37;1.27;;;;;;;;;;4988020;28;20198;-66
2022/07/30 04:02:23;;;;;;;1.37;1.17;;;;;;;;;;5007718;28;20210;-65
2022/07/30 04:04:53;;;;;;;1.47;1.30;;;;;;;;;;5007577;28;20592;-65
2022/07/30 04:07:23;;;;;;;2.07;1.20;;;;;;;;;;5014849;28;20204;-65
2022/07/30 04:09:52;;;;;;;1.23;1.13;;;;;;;;;;5017730;28;20191;-65
2022/07/30 04:12:21;;;;;;;1.67;1.50;;;;;;;;;;5006422;28;20215;-65
2022/07/30 04:14:57;;;;;;;1.30;1.20;;;;;;;;;;5007643;28;20224;-65
2022/07/30 04:17:44;;;;;;;1.27;1.07;;;;;;;;;;5002800;28;20425;-67
2022/07/30 04:20:23;;;;;;;1.40;1.30;;;;;;;;;;5002788;28;20238;-66
2022/07/30 04:23:01;;;;;;;1.33;1.23;;;;;;;;;;4981184;28;20203;-65
2022/07/30 04:25:41;;;;;;;1.33;1.20;;;;;;;;;;5020745;28;20627;-65
2022/07/30 04:28:13;;;;;;;1.40;1.30;;;;;;;;;;5008545;28;20223;-65
2022/07/30 04:30:41;;;;;;;1.10;1.10;;;;;;;;;;4979263;28;20207;-66
2022/07/30 04:33:13;;;;;;;1.10;1.00;;;;;;;;;;5006603;28;20265;-67
2022/07/30 04:35:44;;;;;;;1.40;1.30;;;;;;;;;;5009325;28;20218;-65
2022/07/30 04:38:20;;;;;;;1.47;1.20;;;;;;;;;;4993580;28;20191;-65
2022/07/30 04:40:56;;;;;;;1.30;1.20;;;;;;;;;;5018770;28;20285;-65
2022/07/30 04:43:30;;;;;;;1.30;1.20;;;;;;;;;;4991565;28;20585;-65
2022/07/30 04:45:59;;;;;;;1.27;1.10;;;;;;;;;;5007002;28;20717;-65
2022/07/30 04:48:29;;;;;;;1.17;1.10;;;;;;;;;;5011664;28;20230;-65
2022/07/30 04:51:03;;;;;;;1.50;1.40;;;;;;;;;;4984271;28;20199;-66
2022/07/30 04:53:36;;;;;;;1.20;1.10;;;;;;;;;;4989869;28;20617;-67
2022/07/30 04:56:34;;;;;;;1.40;1.30;;;;;;;;;;5004523;28;20249;-67
2022/07/30 04:59:07;;;;;;;1.10;1.00;;;;;;;;;;5004783;28;20188;-66
2022/07/30 05:01:41;;;;;;;1.13;1.00;;;;;;;;;;4986246;28;20254;-66
2022/07/30 05:04:15;;;;;;;1.30;1.20;;;;;;;;;;5012019;28;20239;-67
2022/07/30 05:06:47;;;;;;;1.33;1.23;;;;;;;;;;5013999;28;20283;-65
2022/07/30 05:09:20;;;;;;;1.30;1.10;;;;;;;;;;4997693;28;20520;-65
2022/07/30 05:11:54;;;;;;;1.40;1.20;;;;;;;;;;5020548;28;20199;-65
2022/07/30 05:14:27;;;;;;;1.50;1.40;;;;;;;;;;5003787;28;20187;-65
2022/07/30 05:17:00;;;;;;;1.20;1.10;;;;;;;;;;4979943;28;20230;-67
2022/07/30 05:19:34;;;;;;;1.20;1.10;;;;;;;;;;5009458;28;20207;-67
2022/07/30 05:22:06;;;;;;;2.20;1.10;;;;;;;;;;5025274;28;20197;-67
2022/07/30 05:24:36;;;;;;;1.27;1.17;;;;;;;;;;5026042;28;20200;-67
2022/07/30 05:27:08;;;;;;;1.30;1.20;;;;;;;;;;4993931;28;20210;-65
2022/07/30 05:29:40;;;;;;;1.30;1.20;;;;;;;;;;5010471;28;20208;-64
2022/07/30 05:32:11;;;;;;;1.50;1.13;;;;;;;;;;5007747;28;20275;-66
2022/07/30 05:34:58;;;;;;;1.10;1.00;;;;;;;;;;4979749;28;20271;-67
2022/07/30 05:37:33;;;;;;;1.47;1.37;;;;;;;;;;5020693;28;20613;-67
2022/07/30 05:40:03;;;;;;;1.57;1.33;;;;;;;;;;5004191;28;20204;-67
2022/07/30 05:42:32;;;;;;;1.87;1.30;;;;;;;;;;4999453;28;20210;-65
2022/07/30 05:45:06;;;;;;;1.40;1.30;;;;;;;;;;5011028;28;20203;-66
2022/07/30 05:47:36;;;;;;;1.40;1.30;;;;;;;;;;4994761;28;20215;-66
2022/07/30 05:50:11;;;;;;;1.33;1.23;;;;;;;;;;5012574;28;20622;-65
2022/07/30 05:52:40;;;;;;;1.87;1.23;;;;;;;;;;5009010;28;20215;-66
2022/07/30 05:55:16;;;;;;;1.37;1.27;;;;;;;;;;4992332;28;20708;-66
2022/07/30 05:57:56;;;;;;;0.93;0.93;;;;;;;;;;4990419;28;20238;-66
2022/07/30 06:00:26;;;;;;;1.50;1.40;;;;;;;;;;5016593;28;20211;-66
2022/07/30 06:02:56;;;;;;;1.13;1.03;;;;;;;;;;4988416;28;20207;-66
2022/07/30 06:05:27;;;;;;;1.30;1.20;;;;;;;;;;5007507;28;20246;-66
2022/07/30 06:07:54;;;;;;;1.67;1.27;;;;;;;;;;5016996;28;20656;-67
2022/07/30 06:10:24;;;;;;;1.40;1.17;;;;;;;;;;4998273;28;20203;-66
2022/07/30 06:12:57;;;;;;;1.60;1.50;;;;;;;;;;5010423;28;20200;-66
2022/07/30 06:15:31;;;;;;;1.40;1.30;;;;;;;;;;5009774;28;20732;-66
2022/07/30 06:18:08;;;;;;;1.43;1.30;;;;;;;;;;5015290;28;20280;-66
2022/07/30 06:20:38;;;;;;;1.50;1.40;;;;;;;;;;4999954;28;20211;-66
2022/07/30 06:23:13;;;;;;;1.87;1.40;;;;;;;;;;5014649;28;20195;-66
2022/07/30 06:25:43;;;;;;;1.27;1.17;;;;;;;;;;4992005;28;20215;-66
2022/07/30 06:28:16;;;;;;;1.40;1.30;;;;;;;;;;5007316;28;20225;-66
2022/07/30 06:31:06;;;;;;;1.73;1.20;;;;;;;;;;5012443;28;20265;-67
2022/07/30 06:33:38;;;;;;;1.80;1.70;;;;;;;;;;5013934;28;20207;-68
2022/07/30 06:36:07;;;;;;;1.60;1.50;;;;;;;;;;5018855;28;20269;-68
2022/07/30 06:39:07;;;;;;;1.40;1.30;;;;;;;;;;4995866;28;20192;-67
2022/07/30 06:41:34;;;;;;;1.33;1.23;;;;;;;;;;5008803;28;20184;-66
2022/07/30 06:44:04;;;;;;;1.77;1.30;;;;;;;;;;5016167;28;20192;-66
2022/07/30 06:46:34;;;;;;;1.17;1.10;;;;;;;;;;5010066;28;20203;-66
2022/07/30 06:49:08;;;;;;;1.57;1.40;;;;;;;;;;5017442;28;20656;-66
2022/07/30 06:51:39;;;;;;;1.47;1.37;;;;;;;;;;5013836;28;20538;-66
2022/07/30 06:54:11;;;;;;;1.63;1.37;;;;;;;;;;5007982;28;20819;-66
2022/07/30 06:56:41;;;;;;;1.37;1.27;;;;;;;;;;5017429;28;20679;-68
2022/07/30 06:59:15;;;;;;;1.57;1.47;;;;;;;;;;4993281;28;20649;-69
2022/07/30 07:01:49;;;;;;;1.63;1.53;;;;;;;;;;5008892;28;20224;-68
2022/07/30 07:04:22;;;;;;;2.33;1.40;;;;;;;;;;5007246;28;20262;-68
2022/07/30 07:06:53;;;;;;;1.70;1.40;;;;;;;;;;5015751;28;20657;-67
2022/07/30 07:09:25;;;;;;;1.70;1.60;;;;;;;;;;5020657;28;20286;-67
2022/07/30 07:11:54;;;;;;;2.80;1.70;;;;;;;;;;4997209;28;20670;-68
2022/07/30 07:14:29;;;;;;;1.83;1.47;;;;;;;;;;5004849;28;20222;-67
2022/07/30 07:16:59;;;;;;;1.57;1.47;;;;;;;;;;5008677;28;20227;-67
2022/07/30 07:19:28;;;;;;;1.87;1.50;;;;;;;;;;5010507;28;20195;-68
2022/07/30 07:22:18;;;;;;;1.87;1.50;;;;;;;;;;5014498;28;20214;-69
2022/07/30 07:24:47;;;;;;;3.40;1.70;;;;;;;;;;5019408;28;20196;-69
2022/07/30 07:27:19;;;;;;;2.03;1.60;;;;;;;;;;4987110;28;20223;-66
2022/07/30 07:29:51;;;;;;;2.20;1.53;;;;;;;;;;4982598;28;20254;-66
2022/07/30 07:32:38;;;;;;;1.43;1.30;;;;;;;;;;5005660;28;20218;-68
2022/07/30 07:35:08;;;;;;;1.87;1.70;;;;;;;;;;5010566;28;20191;-67
2022/07/30 07:37:41;;;;;;;1.93;1.60;;;;;;;;;;5010170;28;20254;-66
2022/07/30 07:40:14;;;;;;;5.60;1.97;;;;;;;;;;5003926;28;20215;-66
2022/07/30 07:42:51;;;;;;;1.90;1.80;;;;;;;;;;4999244;28;20760;-66
2022/07/30 07:45:24;;;;;;;2.43;1.67;;;;;;;;;;5015311;28;20199;-67
2022/07/30 07:47:56;;;;;;;1.70;1.53;;;;;;;;;;5008381;28;20204;-67
2022/07/30 07:50:26;;;;;;;1.77;1.60;;;;;;;;;;5005378;28;20196;-67
2022/07/30 07:53:01;;;;;;;2.00;1.80;;;;;;;;;;5002514;28;20220;-68
2022/07/30 07:55:34;;;;;;;1.70;1.53;;;;;;;;;;5016513;28;20198;-66
2022/07/30 07:58:03;;;;;;;2.63;1.60;;;;;;;;;;5005554;28;20218;-66
2022/07/30 08:00:33;;;;;;;3.00;1.80;;;;;;;;;;5016489;28;20835;-67
2022/07/30 08:03:10;;;;;;;1.80;1.70;;;;;;;;;;4968152;28;20211;-67
2022/07/30 08:05:38;;;;;;;2.50;1.63;;;;;;;;;;5007016;28;20561;-67
2022/07/30 08:08:21;;;;;;;2.50;1.63;;;;;;;;;;5006439;28;20632;-68
2022/07/30 08:10:54;;;;;;;1.63;1.33;;;;;;;;;;5005259;28;20519;-66
2022/07/30 08:13:28;;;;;;;2.70;1.60;;;;;;;;;;5004666;28;20211;-66
2022/07/30 08:16:20;;;;;;;1.80;1.47;;;;;;;;;;5009422;28;20689;-65
2022/07/30 08:18:54;;;;;;;1.80;1.37;;;;;;;;;;5016134;28;20191;-66
2022/07/30 08:21:23;;;;;;;1.53;1.40;;;;;;;;;;5000959;28;20195;-68
2022/07/30 08:23:57;;;;;;;1.90;1.27;;;;;;;;;;5015728;28;20216;-67
2022/07/30 08:26:32;;;;;;;1.80;1.50;;;;;;;;;;5005061;28;20643;-68
2022/07/30 08:29:02;;;;;;;1.97;1.43;;;;;;;;;;4951586;28;20666;-69
2022/07/30 08:31:37;;;;;;;2.03;1.40;;;;;;;;;;4991946;28;20668;-66
2022/07/30 08:34:08;;;;;;;1.40;1.30;;;;;;;;;;5002801;28;20484;-66
2022/07/30 08:36:38;;;;;;;2.23;1.27;;;;;;;;;;4999684;28;20660;-68
2022/07/30 08:39:05;;;;;;;1.50;1.40;;;;;;;;;;5009358;28;20208;-69
2022/07/30 08:41:33;;;;;;;2.27;1.60;;;;;;;;;;5018959;28;20628;-66
2022/07/30 08:44:03;;;;;;;1.77;1.50;;;;;;;;;;4991623;28;20202;-66
2022/07/30 08:46:48;;;;;;;4.13;1.43;;;;;;;;;;4997473;28;20191;-65
2022/07/30 08:49:16;;;;;;;1.60;1.50;;;;;;;;;;5012353;28;20229;-66
2022/07/30 08:51:48;;;;;;;1.97;1.20;;;;;;;;;;5018685;28;20287;-67
2022/07/30 08:54:20;;;;;;;1.47;1.37;;;;;;;;;;5004782;28;20238;-66
2022/07/30 08:56:52;;;;;;;1.90;1.40;;;;;;;;;;4986584;28;20224;-68
2022/07/30 08:59:24;;;;;;;1.87;1.30;;;;;;;;;;5022502;28;20196;-68
2022/07/30 09:02:17;;;;;;;2.20;1.50;;;;;;;;;;5008524;28;20195;-66
2022/07/30 09:04:55;;;;;;;1.90;1.40;;;;;;;;;;5005006;28;20264;-66
2022/07/30 09:07:25;;;;;;;2.67;1.57;;;;;;;;;;5011261;28;20202;-66
2022/07/30 09:09:57;;;;;;;1.43;1.33;;;;;;;;;;4999367;28;20225;-66
2022/07/30 09:12:36;;;;;;;1.83;1.37;;;;;;;;;;5018172;28;20208;-66
2022/07/30 09:15:16;;;;;;;1.50;1.40;;;;;;;;;;5006004;28;20688;-67
2022/07/30 09:18:10;;;;;;;1.40;1.30;;;;;;;;;;5015905;28;20285;-69
2022/07/30 09:20:41;;;;;;;1.60;1.50;;;;;;;;;;5008786;28;20635;-68
2022/07/30 09:23:12;;;;;;;3.10;1.63;;;;;;;;;;4978003;28;20196;-68
2022/07/30 09:25:58;;;;;;;2.33;1.67;;;;;;;;;;5011729;28;20223;-66
2022/07/30 09:28:33;;;;;;;1.53;1.40;;;;;;;;;;4997855;28;20238;-67
2022/07/30 09:31:06;;;;;;;2.00;1.40;;;;;;;;;;4991176;28;20194;-67
2022/07/30 09:33:45;;;;;;;1.87;1.60;;;;;;;;;;5013766;28;20210;-66
2022/07/30 09:36:17;;;;;;;1.83;1.50;;;;;;;;;;5003250;28;20214;-66
2022/07/30 09:38:50;;;;;;;1.40;1.30;;;;;;;;;;4995934;28;20264;-65
2022/07/30 09:41:34;;;;;;;2.30;1.30;;;;;;;;;;5011332;28;20287;-67
2022/07/30 09:44:23;;;;;;;1.77;1.40;;;;;;;;;;5015850;28;20195;-68
2022/07/30 09:46:53;;;;;;;1.40;1.30;;;;;;;;;;5011672;28;20194;-68
2022/07/30 09:49:29;;;;;;;1.43;1.30;;;;;;;;;;4992757;28;20207;-68
2022/07/30 09:51:59;;;;;;;1.97;1.50;;;;;;;;;;5014575;28;20215;-66
2022/07/30 09:54:56;;;;;;;2.50;1.63;;;;;;;;;;4996633;28;20202;-66
2022/07/30 09:57:29;;;;;;;1.67;1.27;;;;;;;;;;5011715;28;20267;-66
2022/07/30 10:00:23;;;;;;;2.77;1.50;;;;;;;;;;5011375;28;20194;-66
2022/07/30 10:02:59;;;;;;;1.83;1.40;;;;;;;;;;5001164;28;20215;-66
2022/07/30 10:05:57;;;;;;;2.43;1.40;;;;;;;;;;5004557;28;20610;-68
2022/07/30 10:08:55;;;;;;;2.47;1.30;;;;;;;;;;5009421;28;20191;-69
2022/07/30 10:11:29;;;;;;;2.00;1.40;;;;;;;;;;5010110;28;20229;-68
2022/07/30 10:14:02;;;;;;;2.13;1.40;;;;;;;;;;5005735;28;20207;-68
2022/07/30 10:16:31;;;;;;;1.57;1.20;;;;;;;;;;5007319;28;20219;-66
2022/07/30 10:19:06;;;;;;;1.33;1.20;;;;;;;;;;4994267;28;20567;-66
2022/07/30 10:21:47;;;;;;;1.70;1.23;;;;;;;;;;5013201;28;20196;-67
2022/07/30 10:24:21;;;;;;;2.17;1.20;;;;;;;;;;5009528;28;20612;-66
2022/07/30 10:26:56;;;;;;;2.20;1.50;;;;;;;;;;5007124;28;20210;-66
2022/07/30 10:29:35;;;;;;;1.83;1.57;;;;;;;;;;5014109;28;20191;-66
2022/07/30 10:32:16;;;;;;;1.67;1.40;;;;;;;;;;4996604;28;20528;-66
2022/07/30 10:34:59;;;;;;;2.00;1.27;;;;;;;;;;5003486;28;20594;-67
2022/07/30 10:37:51;;;;;;;1.27;1.17;;;;;;;;;;4985407;28;20211;-67
2022/07/30 10:40:29;;;;;;;1.37;1.27;;;;;;;;;;5008114;28;20253;-66
2022/07/30 10:43:17;;;;;;;2.50;1.30;;;;;;;;;;5007842;28;20297;-66
2022/07/30 10:46:04;;;;;;;1.93;1.50;;;;;;;;;;5012957;28;20303;-68
2022/07/30 10:48:40;;;;;;;1.80;1.40;;;;;;;;;;4987357;28;20594;-69
2022/07/30 10:51:10;;;;;;;1.23;1.10;;;;;;;;;;4997657;28;20222;-66
2022/07/30 10:53:57;;;;;;;1.97;1.50;;;;;;;;;;5015400;28;20219;-66
2022/07/30 10:56:30;;;;;;;1.63;1.50;;;;;;;;;;5013223;28;20200;-69
2022/07/30 10:59:10;;;;;;;2.03;1.60;;;;;;;;;;4996292;28;20525;-69
2022/07/30 11:01:51;;;;;;;3.00;1.57;;;;;;;;;;4988788;28;20202;-66
2022/07/30 11:04:29;;;;;;;1.53;1.30;;;;;;;;;;4992698;28;20755;-66
2022/07/30 11:07:15;;;;;;;3.80;1.53;;;;;;;;;;4988976;28;20864;-68
2022/07/30 11:09:46;;;;;;;1.30;1.20;;;;;;;;;;5008171;28;20238;-69
2022/07/30 11:12:41;;;;;;;1.93;1.30;;;;;;;;;;5012321;28;20606;-66
2022/07/30 11:15:15;;;;;;;1.27;1.20;;;;;;;;;;5002821;28;20241;-66
2022/07/30 11:18:03;;;;;;;2.17;1.53;;;;;;;;;;4995332;28;20222;-66
2022/07/30 11:20:41;;;;;;;3.23;1.97;;;;;;;;;;5022701;28;20190;-68
2022/07/30 11:23:26;;;;;;;1.90;1.60;;;;;;;;;;5006001;28;20225;-68
2022/07/30 11:26:08;;;;;;;1.97;1.57;;;;;;;;;;5008882;28;20630;-66
2022/07/30 11:28:45;;;;;;;3.23;1.40;;;;;;;;;;5003654;28;20211;-66
2022/07/30 11:31:33;;;;;;;1.70;1.60;;;;;;;;;;5008516;28;20195;-68
2022/07/30 11:34:27;;;;;;;1.80;1.20;;;;;;;;;;5013186;28;20285;-68
2022/07/30 11:37:16;;;;;;;1.67;1.50;;;;;;;;;;4989053;28;20685;-68
2022/07/30 11:39:58;;;;;;;1.90;1.20;;;;;;;;;;5002853;28;20399;-67
2022/07/30 11:43:15;;;;;;;2.40;1.63;;;;;;;;;;4989523;28;20203;-68
2022/07/30 11:45:45;;;;;;;1.87;1.40;;;;;;;;;;4990158;28;20211;-66
2022/07/30 11:48:14;;;;;;;1.47;1.27;;;;;;;;;;4978877;28;20204;-67
2022/07/30 11:50:42;;;;;;;1.53;1.43;;;;;;;;;;4988865;28;20668;-66
2022/07/30 11:53:14;;;;;;;1.13;1.03;;;;;;;;;;5019649;28;20203;-67
2022/07/30 11:55:59;;;;;;;2.47;1.50;;;;;;;;;;5004578;28;20265;-67
2022/07/30 11:58:47;;;;;;;1.43;1.30;;;;;;;;;;4994706;28;20668;-66
2022/07/30 12:01:18;;;;;;;1.33;1.17;;;;;;;;;;5007660;28;20535;-67
2022/07/30 12:03:47;;;;;;;1.30;1.20;;;;;;;;;;5008903;28;20255;-66
2022/07/30 12:06:20;;;;;;;1.97;1.30;;;;;;;;;;5002381;28;20532;-67
2022/07/30 12:08:50;;;;;;;2.33;1.43;;;;;;;;;;5010360;28;20199;-68
2022/07/30 12:11:36;;;;;;;2.07;1.37;;;;;;;;;;4977926;28;20214;-66
2022/07/30 12:14:08;;;;;;;2.33;1.27;;;;;;;;;;5010615;28;20281;-66
2022/07/30 12:16:41;;;;;;;1.37;1.10;;;;;;;;;;5014585;28;20222;-67
2022/07/30 12:19:15;;;;;;;3.33;1.50;;;;;;;;;;5013164;28;20257;-68
2022/07/30 12:21:46;;;;;;;2.90;1.73;;;;;;;;;;5001384;28;20735;-67
2022/07/30 12:24:26;;;;;;;2.43;1.53;;;;;;;;;;5010633;28;20210;-68
2022/07/30 12:27:06;;;;;;;1.73;1.40;;;;;;;;;;4989312;28;20223;-68
2022/07/30 12:29:34;;;;;;;2.03;1.50;;;;;;;;;;4982659;28;20187;-68
2022/07/30 12:32:05;;;;;;;1.90;1.30;;;;;;;;;;5015824;28;20218;-68
2022/07/30 12:34:34;;;;;;;1.67;1.30;;;;;;;;;;5005881;28;20748;-68
2022/07/30 12:37:17;;;;;;;1.40;1.30;;;;;;;;;;5009854;28;20243;-66
2022/07/30 12:39:45;;;;;;;2.17;1.40;;;;;;;;;;4986942;28;20289;-66
2022/07/30 12:42:23;;;;;;;1.43;1.30;;;;;;;;;;4994218;28;20597;-66
2022/07/30 12:44:58;;;;;;;2.67;1.57;;;;;;;;;;5012846;28;20192;-68
2022/07/30 12:47:34;;;;;;;3.00;1.50;;;;;;;;;;5005782;28;20544;-67
2022/07/30 12:50:15;;;;;;;2.40;1.37;;;;;;;;;;5000560;28;20200;-67
2022/07/30 12:53:00;;;;;;;3.07;1.60;;;;;;;;;;4983685;28;20278;-68
2022/07/30 12:55:33;;;;;;;1.67;1.30;;;;;;;;;;5011424;28;20192;-68
2022/07/30 12:58:07;;;;;;;1.63;1.30;;;;;;;;;;5014121;28;20329;-68
2022/07/30 13:00:53;;;;;;;2.10;1.40;;;;;;;;;;4997395;28;20205;-67
2022/07/30 13:03:37;;;;;;;1.87;1.30;;;;;;;;;;5014965;28;20213;-66
2022/07/30 13:06:17;;;;;;;2.13;1.40;;;;;;;;;;5018389;28;20625;-67
2022/07/30 13:08:55;;;;;;;3.30;1.30;;;;;;;;;;5001846;28;20215;-66
2022/07/30 13:11:43;;;;;;;1.57;1.30;;;;;;;;;;5021684;28;20199;-67
2022/07/30 13:14:18;;;;;;;2.13;1.70;;;;;;;;;;5011050;28;20525;-67
2022/07/30 13:16:55;;;;;;;1.47;1.20;;;;;;;;;;5003074;28;20302;-68
2022/07/30 13:19:27;;;;;;;1.50;1.37;;;;;;;;;;4994309;28;20235;-68
2022/07/30 13:21:57;;;;;;;1.70;1.50;;;;;;;;;;5001117;28;20207;-68
2022/07/30 13:24:29;;;;;;;1.97;1.40;;;;;;;;;;5012426;28;20266;-69
2022/07/30 13:27:02;;;;;;;2.70;1.60;;;;;;;;;;5010865;28;20203;-66
2022/07/30 13:29:37;;;;;;;2.67;1.70;;;;;;;;;;5020778;28;20202;-66
2022/07/30 13:32:09;;;;;;;1.67;1.30;;;;;;;;;;5005865;28;20214;-66
2022/07/30 13:34:40;;;;;;;2.20;1.40;;;;;;;;;;4983350;28;20209;-66
2022/07/30 13:37:12;;;;;;;2.23;1.60;;;;;;;;;;5021533;28;20226;-68
2022/07/30 13:39:43;;;;;;;2.17;1.50;;;;;;;;;;5021574;28;20218;-68
2022/07/30 13:42:14;;;;;;;1.50;1.30;;;;;;;;;;5023286;28;20206;-68
2022/07/30 13:44:44;;;;;;;1.97;1.47;;;;;;;;;;5025209;28;20202;-68
2022/07/30 13:47:13;;;;;;;1.93;1.47;;;;;;;;;;5024939;28;20250;-67
2022/07/30 13:49:52;;;;;;;3.07;1.60;;;;;;;;;;5024675;28;20273;-66
2022/07/30 13:52:24;;;;;;;2.43;1.50;;;;;;;;;;5012655;28;20219;-68
2022/07/30 13:54:56;;;;;;;1.50;1.40;;;;;;;;;;5024181;28;20207;-68
2022/07/30 13:57:28;;;;;;;2.80;1.50;;;;;;;;;;5023592;28;20221;-66
2022/07/30 14:00:01;;;;;;;1.83;1.40;;;;;;;;;;5016739;28;20231;-67
2022/07/30 14:02:33;;;;;;;2.07;1.70;;;;;;;;;;5013427;28;20195;-68
2022/07/30 14:05:05;;;;;;;2.20;1.50;;;;;;;;;;4998684;28;20232;-68
2022/07/30 14:07:40;;;;;;;1.90;1.30;;;;;;;;;;5022751;28;20203;-67
2022/07/30 14:10:14;;;;;;;3.07;1.50;;;;;;;;;;5011783;28;20672;-67
2022/07/30 14:12:45;;;;;;;4.37;1.63;;;;;;;;;;5021661;28;20218;-66
2022/07/30 14:15:14;;;;;;;2.53;1.30;;;;;;;;;;5016571;28;20306;-67
2022/07/30 14:17:46;;;;;;;2.40;1.60;;;;;;;;;;5014766;28;20692;-67
2022/07/30 14:20:25;;;;;;;2.03;1.43;;;;;;;;;;5003990;28;20187;-67
2022/07/30 14:22:58;;;;;;;1.97;1.67;;;;;;;;;;4994997;28;20200;-66
2022/07/30 14:25:31;;;;;;;3.27;1.70;;;;;;;;;;5010318;28;20202;-67
2022/07/30 14:28:16;;;;;;;4.43;1.50;;;;;;;;;;4987630;28;20243;-66
2022/07/30 14:30:45;;;;;;;2.10;1.60;;;;;;;;;;5006740;28;20195;-68
2022/07/30 14:33:16;;;;;;;1.60;1.47;;;;;;;;;;5019259;28;20199;-69
2022/07/30 14:35:46;;;;;;;2.13;1.63;;;;;;;;;;5015800;28;20203;-69
2022/07/30 14:38:20;;;;;;;2.07;1.60;;;;;;;;;;4989283;28;20254;-69
2022/07/30 14:40:55;;;;;;;2.30;1.50;;;;;;;;;;4985167;28;20531;-69
2022/07/30 14:43:40;;;;;;;2.93;1.60;;;;;;;;;;5018606;28;20191;-69
2022/07/30 14:46:08;;;;;;;2.43;1.80;;;;;;;;;;4993905;28;20195;-69
2022/07/30 14:48:38;;;;;;;1.67;1.50;;;;;;;;;;5025848;28;20202;-68
2022/07/30 14:51:13;;;;;;;2.70;1.70;;;;;;;;;;5021340;28;20249;-67
2022/07/30 14:53:55;;;;;;;1.93;1.40;;;;;;;;;;5008621;28;20269;-67
2022/07/30 14:56:27;;;;;;;1.93;1.20;;;;;;;;;;5003137;28;20222;-67
2022/07/30 14:59:10;;;;;;;2.60;1.43;;;;;;;;;;4997454;28;20539;-66
2022/07/30 15:01:41;;;;;;;2.47;1.73;;;;;;;;;;5006789;28;20210;-67
2022/07/30 15:04:11;;;;;;;1.77;1.67;;;;;;;;;;5018970;28;20235;-67
2022/07/30 15:06:50;;;;;;;1.73;1.57;;;;;;;;;;5005847;28;20203;-68
2022/07/30 15:09:22;;;;;;;1.67;1.57;;;;;;;;;;5000832;28;20203;-68
2022/07/30 15:11:55;;;;;;;1.90;1.60;;;;;;;;;;5019594;28;20199;-69
2022/07/30 15:14:41;;;;;;;1.93;1.60;;;;;;;;;;5006008;28;20779;-69
2022/07/30 15:17:12;;;;;;;1.90;1.60;;;;;;;;;;5014772;28;20593;-67
2022/07/30 15:19:47;;;;;;;2.13;1.60;;;;;;;;;;5014114;28;20282;-67
2022/07/30 15:22:19;;;;;;;2.17;1.37;;;;;;;;;;5017455;28;20195;-67
2022/07/30 15:24:50;;;;;;;1.73;1.60;;;;;;;;;;5009406;28;20180;-67
2022/07/30 15:27:19;;;;;;;2.03;1.60;;;;;;;;;;5009321;28;20230;-68
2022/07/30 15:30:01;;;;;;;2.33;1.77;;;;;;;;;;5001725;28;20191;-68
2022/07/30 15:32:37;;;;;;;2.50;1.90;;;;;;;;;;5012034;28;20624;-69
2022/07/30 15:35:08;;;;;;;1.90;1.43;;;;;;;;;;5009449;28;20192;-67